Haskell Heights, South Carolina
Current Conditions -  °F | °C
As of 12:53 PM on Friday 31 Oct 2014 (Local Time) from KCUB Reporting Station
Clear Clear  
Wind Chill: 65°   Ceiling: Unl
Heat Index: 65°   Visibility: 10mi
Dew Point: 45°   Wind: 3mph
Humidity: 48%   Direction: NA
Pressure: 29.89"   Gusts: NA
Location:  34.1179°N, 81.0612°W
Report Text: KCUB 311653Z AUTO VRB03KT 10SM CLR 18/07 A2989 RMK AO2 SLP119 T01830072
Loading
Personal Weather Stations






























Interactive Weather Map
Tropical Storm Tracking
New forecast layout! Learn more

10-Day Weather Forecast

Advertisements
Track Severe Weather on mobile